Time;durP1;ratioP1;P1;durP2;ratioP2;P2;SDS_P1;SDS_P2;PMS_P1;PMS_P2;Temp;Humidity;BMP_temperature;BMP_pressure;BME280_temperature;BME280_humidity;BME280_pressure;Samples;Min_cycle;Max_cycle;Signal;HPM_P1;HPM_P2
2023/09/29 00:00:34;;;;;;;6.13;5.53;;;;;;;;;;4996523;28;20751;-89
2023/09/29 00:02:59;;;;;;;5.85;5.35;;;;;;;;;;4980009;28;20316;-90
2023/09/29 00:05:26;;;;;;;6.68;6.00;;;;;;;;;;4971273;28;20295;-90
2023/09/29 00:07:52;;;;;;;7.85;6.13;;;;;;;;;;4978671;28;20637;-90
2023/09/29 00:10:20;;;;;;;6.95;6.35;;;;;;;;;;4989464;28;20268;-89
2023/09/29 00:12:46;;;;;;;8.23;5.93;;;;;;;;;;4961587;28;20237;-89
2023/09/29 00:15:12;;;;;;;6.47;5.88;;;;;;;;;;4961191;28;20569;-89
2023/09/29 00:17:37;;;;;;;5.75;5.35;;;;;;;;;;4961032;28;20221;-90
2023/09/29 00:20:23;;;;;;;6.18;5.35;;;;;;;;;;4959891;28;20214;-89
2023/09/29 00:22:58;;;;;;;5.00;4.60;;;;;;;;;;4981404;28;20224;-89
2023/09/29 00:25:24;;;;;;;6.60;5.93;;;;;;;;;;4973619;28;20708;-90
2023/09/29 00:27:50;;;;;;;6.88;6.28;;;;;;;;;;4962995;28;20212;-90
2023/09/29 00:30:16;;;;;;;7.78;7.00;;;;;;;;;;4991989;28;20225;-89
2023/09/29 00:32:45;;;;;;;11.70;6.68;;;;;;;;;;4996099;28;20228;-90
2023/09/29 00:35:18;;;;;;;8.80;7.00;;;;;;;;;;5011671;28;20221;-89
2023/09/29 00:37:44;;;;;;;7.60;7.00;;;;;;;;;;4981020;28;20223;-89
2023/09/29 00:40:12;;;;;;;7.22;6.53;;;;;;;;;;5012133;28;20697;-89
2023/09/29 00:42:39;;;;;;;7.60;6.82;;;;;;;;;;4980464;28;20238;-89
2023/09/29 00:45:06;;;;;;;9.15;6.60;;;;;;;;;;4976068;28;20217;-89
2023/09/29 00:47:32;;;;;;;6.82;6.22;;;;;;;;;;4967808;28;20921;-90
2023/09/29 00:49:57;;;;;;;7.72;6.07;;;;;;;;;;4975968;28;20232;-89
2023/09/29 00:52:24;;;;;;;6.90;6.20;;;;;;;;;;4979349;28;20232;-89
2023/09/29 00:54:51;;;;;;;6.55;5.82;;;;;;;;;;4978907;28;20247;-89
2023/09/29 00:57:17;;;;;;;6.90;6.30;;;;;;;;;;4985714;28;20757;-90
2023/09/29 00:59:46;;;;;;;7.60;6.57;;;;;;;;;;4977001;28;20253;-89
2023/09/29 01:02:14;;;;;;;7.85;7.15;;;;;;;;;;4994401;28;20240;-90
2023/09/29 01:04:40;;;;;;;8.52;7.75;;;;;;;;;;4977208;28;20598;-90
2023/09/29 01:07:07;;;;;;;14.38;8.10;;;;;;;;;;4955277;28;20221;-89
2023/09/29 01:09:33;;;;;;;7.75;7.03;;;;;;;;;;4995770;28;20681;-89
2023/09/29 01:12:00;;;;;;;7.07;6.50;;;;;;;;;;4979891;28;20227;-91
2023/09/29 01:14:25;;;;;;;7.55;6.95;;;;;;;;;;4980375;28;20235;-89
2023/09/29 01:16:51;;;;;;;7.70;6.90;;;;;;;;;;4995521;28;20225;-90
2023/09/29 01:19:18;;;;;;;7.20;6.60;;;;;;;;;;4978955;28;20224;-89
2023/09/29 01:21:46;;;;;;;6.78;6.18;;;;;;;;;;4978759;28;20221;-90
2023/09/29 01:24:12;;;;;;;6.28;5.68;;;;;;;;;;4978802;28;20220;-90
2023/09/29 01:26:38;;;;;;;6.28;5.78;;;;;;;;;;4979376;28;20622;-89
2023/09/29 01:29:03;;;;;;;7.97;7.18;;;;;;;;;;5002344;28;20225;-90
2023/09/29 01:31:29;;;;;;;6.97;6.40;;;;;;;;;;4978517;28;20228;-89
2023/09/29 01:33:55;;;;;;;7.63;6.93;;;;;;;;;;5012272;28;20237;-89
2023/09/29 01:36:21;;;;;;;7.70;7.07;;;;;;;;;;4978629;28;20225;-89
2023/09/29 01:38:47;;;;;;;8.38;7.63;;;;;;;;;;4978735;28;20229;-89
2023/09/29 01:41:13;;;;;;;7.70;7.10;;;;;;;;;;4991157;28;20217;-90
2023/09/29 01:43:39;;;;;;;9.63;7.07;;;;;;;;;;4997403;28;20233;-90
2023/09/29 01:46:07;;;;;;;6.80;6.20;;;;;;;;;;4997226;28;20251;-90
2023/09/29 01:48:33;;;;;;;8.27;6.90;;;;;;;;;;4998473;28;20218;-90
2023/09/29 01:51:02;;;;;;;7.43;6.72;;;;;;;;;;4998342;28;20229;-91
2023/09/29 01:53:30;;;;;;;7.72;6.95;;;;;;;;;;4978617;28;20304;-92
2023/09/29 01:55:59;;;;;;;7.50;6.97;;;;;;;;;;4978795;28;20217;-90
2023/09/29 01:58:27;;;;;;;7.55;6.88;;;;;;;;;;4977608;28;20220;-89
2023/09/29 02:00:54;;;;;;;7.50;6.85;;;;;;;;;;4978741;28;20280;-90
2023/09/29 02:03:20;;;;;;;8.52;7.82;;;;;;;;;;4978144;28;20221;-90
2023/09/29 02:05:46;;;;;;;8.95;8.25;;;;;;;;;;4995004;28;20247;-89
2023/09/29 02:08:12;;;;;;;9.48;8.48;;;;;;;;;;4994164;28;20226;-90
2023/09/29 02:10:37;;;;;;;8.00;7.20;;;;;;;;;;4993693;28;20720;-90
2023/09/29 02:13:07;;;;;;;7.70;7.13;;;;;;;;;;4981102;28;20226;-90
2023/09/29 02:15:34;;;;;;;7.50;6.90;;;;;;;;;;4979013;28;20232;-90
2023/09/29 02:18:01;;;;;;;8.48;7.78;;;;;;;;;;4962429;28;20228;-90
2023/09/29 02:20:30;;;;;;;7.63;6.97;;;;;;;;;;4961707;28;20599;-90
2023/09/29 02:22:59;;;;;;;7.85;7.25;;;;;;;;;;4992341;28;20224;-89
2023/09/29 02:25:25;;;;;;;7.13;6.63;;;;;;;;;;5000940;28;20244;-89
2023/09/29 02:27:54;;;;;;;8.40;7.63;;;;;;;;;;5017397;28;20231;-90
2023/09/29 02:30:19;;;;;;;8.98;8.23;;;;;;;;;;5001050;28;20220;-89
2023/09/29 02:32:45;;;;;;;8.75;7.70;;;;;;;;;;4984452;28;20232;-89
2023/09/29 02:35:10;;;;;;;8.32;7.63;;;;;;;;;;4984897;28;20232;-89
2023/09/29 02:37:36;;;;;;;8.65;7.88;;;;;;;;;;5000989;28;20911;-91
2023/09/29 02:40:05;;;;;;;9.07;8.00;;;;;;;;;;5000351;28;20243;-90
2023/09/29 02:42:31;;;;;;;8.05;7.43;;;;;;;;;;5000563;28;20216;-90
2023/09/29 02:44:57;;;;;;;9.20;8.30;;;;;;;;;;5000790;28;20200;-90
2023/09/29 02:47:23;;;;;;;13.05;8.65;;;;;;;;;;4983992;28;20295;-90
2023/09/29 02:49:49;;;;;;;8.73;8.00;;;;;;;;;;5000303;28;20248;-89
2023/09/29 02:52:15;;;;;;;8.55;7.88;;;;;;;;;;5016299;28;20227;-90
2023/09/29 02:54:41;;;;;;;9.02;8.32;;;;;;;;;;4985030;28;20220;-89
2023/09/29 02:57:07;;;;;;;8.00;7.30;;;;;;;;;;4984492;28;20294;-89
2023/09/29 02:59:36;;;;;;;9.30;7.95;;;;;;;;;;5004598;28;20215;-90
2023/09/29 03:02:04;;;;;;;8.63;7.90;;;;;;;;;;5000312;28;20220;-90
2023/09/29 03:04:30;;;;;;;8.45;7.65;;;;;;;;;;4984687;28;20239;-90
2023/09/29 03:06:56;;;;;;;8.15;7.43;;;;;;;;;;4972493;28;20824;-90
2023/09/29 03:09:22;;;;;;;8.30;7.55;;;;;;;;;;4977503;28;20272;-90
2023/09/29 03:11:49;;;;;;;8.80;7.47;;;;;;;;;;4977540;28;20237;-90
2023/09/29 03:14:16;;;;;;;7.43;6.90;;;;;;;;;;4977376;28;20596;-90
2023/09/29 03:16:42;;;;;;;8.55;7.07;;;;;;;;;;5010410;28;20237;-89
2023/09/29 03:19:08;;;;;;;8.27;7.57;;;;;;;;;;4977050;28;20233;-91
2023/09/29 03:21:34;;;;;;;8.10;7.40;;;;;;;;;;4993414;28;20248;-90
2023/09/29 03:24:00;;;;;;;8.15;7.38;;;;;;;;;;4977627;28;20237;-89
2023/09/29 03:26:26;;;;;;;8.32;7.72;;;;;;;;;;4993612;28;20221;-90
2023/09/29 03:28:54;;;;;;;8.80;7.90;;;;;;;;;;4994043;28;20248;-89
2023/09/29 03:31:22;;;;;;;8.55;7.93;;;;;;;;;;4992608;28;20284;-89
2023/09/29 03:33:52;;;;;;;9.45;8.65;;;;;;;;;;4978491;28;20236;-90
2023/09/29 03:36:20;;;;;;;10.75;8.98;;;;;;;;;;4993076;28;20309;-90
2023/09/29 03:38:46;;;;;;;11.18;9.15;;;;;;;;;;5009477;28;20221;-89
2023/09/29 03:41:14;;;;;;;10.63;9.73;;;;;;;;;;4979974;28;20593;-88
2023/09/29 03:43:39;;;;;;;10.82;9.73;;;;;;;;;;4965055;28;20224;-90
2023/09/29 03:46:06;;;;;;;9.68;8.98;;;;;;;;;;4980153;28;20220;-89
2023/09/29 03:48:31;;;;;;;9.68;8.88;;;;;;;;;;4981729;28;20674;-90
2023/09/29 03:50:57;;;;;;;8.38;7.65;;;;;;;;;;4963299;28;20260;-90
2023/09/29 03:53:28;;;;;;;8.65;7.85;;;;;;;;;;4952972;28;20308;-90
2023/09/29 03:55:56;;;;;;;8.63;7.75;;;;;;;;;;4962476;28;20236;-89
2023/09/29 03:58:24;;;;;;;7.68;6.88;;;;;;;;;;4960951;28;20240;-91
2023/09/29 04:04:36;;;;;;;7.88;7.10;;;;;;;;;;5008003;28;20705;-90
2023/09/29 04:07:04;;;;;;;8.05;7.45;;;;;;;;;;4962312;28;20229;-90
2023/09/29 04:09:30;;;;;;;9.05;8.23;;;;;;;;;;4951653;28;20216;-90
2023/09/29 04:11:55;;;;;;;9.43;7.82;;;;;;;;;;4994107;28;20232;-90
2023/09/29 04:14:21;;;;;;;10.65;7.85;;;;;;;;;;4961023;28;20268;-89
2023/09/29 04:16:47;;;;;;;11.05;7.63;;;;;;;;;;4982557;28;20236;-90
2023/09/29 04:19:12;;;;;;;9.68;8.63;;;;;;;;;;4984228;28;20206;-89
2023/09/29 04:21:40;;;;;;;8.38;7.57;;;;;;;;;;4983127;28;20227;-90
2023/09/29 04:24:06;;;;;;;8.50;7.80;;;;;;;;;;4962267;28;20224;-90
2023/09/29 04:26:31;;;;;;;8.35;7.65;;;;;;;;;;4980350;28;20236;-88
2023/09/29 04:28:57;;;;;;;9.27;8.48;;;;;;;;;;4978014;28;20226;-89
2023/09/29 04:31:23;;;;;;;11.13;8.48;;;;;;;;;;4976874;28;20349;-89
2023/09/29 04:33:48;;;;;;;8.68;7.97;;;;;;;;;;4995713;28;20231;-88
2023/09/29 04:36:14;;;;;;;9.40;8.52;;;;;;;;;;4999017;28;20237;-88
2023/09/29 04:38:41;;;;;;;7.93;7.22;;;;;;;;;;4983643;28;20287;-89
2023/09/29 04:41:06;;;;;;;8.02;7.32;;;;;;;;;;4999520;28;20240;-88
2023/09/29 04:43:32;;;;;;;8.50;7.65;;;;;;;;;;4999426;28;20212;-88
2023/09/29 04:45:58;;;;;;;9.43;8.05;;;;;;;;;;5016122;28;20816;-88
2023/09/29 04:48:23;;;;;;;8.95;8.18;;;;;;;;;;4993536;28;20228;-88
2023/09/29 04:50:52;;;;;;;9.75;8.85;;;;;;;;;;5006145;28;20575;-88
2023/09/29 04:53:18;;;;;;;11.40;8.48;;;;;;;;;;4972806;28;20232;-88
2023/09/29 04:55:43;;;;;;;10.05;8.95;;;;;;;;;;4956975;28;20244;-89
2023/09/29 04:58:09;;;;;;;9.80;9.00;;;;;;;;;;4988435;28;20292;-89
2023/09/29 05:00:35;;;;;;;10.48;9.57;;;;;;;;;;4986671;28;20715;-89
2023/09/29 05:03:01;;;;;;;9.30;8.50;;;;;;;;;;5013585;28;20220;-88
2023/09/29 05:05:27;;;;;;;10.23;8.77;;;;;;;;;;4999390;28;20220;-87
2023/09/29 05:07:53;;;;;;;9.95;9.02;;;;;;;;;;5006846;28;20208;-87
2023/09/29 05:10:19;;;;;;;8.85;8.15;;;;;;;;;;5004339;28;20224;-88
2023/09/29 05:12:45;;;;;;;9.60;8.73;;;;;;;;;;5005743;28;20229;-89
2023/09/29 05:15:11;;;;;;;11.23;8.90;;;;;;;;;;4989626;28;20207;-89
2023/09/29 05:17:36;;;;;;;10.13;9.25;;;;;;;;;;4987349;28;20273;-89
2023/09/29 05:20:02;;;;;;;10.43;9.45;;;;;;;;;;5005600;28;20217;-90
2023/09/29 05:22:28;;;;;;;9.77;8.90;;;;;;;;;;4978894;28;20804;-89
2023/09/29 05:24:54;;;;;;;9.18;8.30;;;;;;;;;;4977152;28;20248;-88
2023/09/29 05:27:22;;;;;;;11.70;9.80;;;;;;;;;;4988517;28;20201;-89
2023/09/29 05:29:47;;;;;;;11.70;10.60;;;;;;;;;;4986726;28;20237;-89
2023/09/29 05:32:13;;;;;;;11.70;10.60;;;;;;;;;;5002937;28;20229;-89
2023/09/29 05:34:40;;;;;;;13.25;10.75;;;;;;;;;;4998291;28;20633;-89
2023/09/29 05:37:05;;;;;;;10.77;9.85;;;;;;;;;;4986769;28;20230;-89
2023/09/29 05:39:32;;;;;;;11.48;10.27;;;;;;;;;;4976137;28;20225;-89
2023/09/29 05:41:58;;;;;;;10.65;9.73;;;;;;;;;;5002165;28;20284;-89
2023/09/29 05:44:23;;;;;;;11.00;10.20;;;;;;;;;;4966420;28;20875;-88
2023/09/29 05:46:51;;;;;;;11.02;10.00;;;;;;;;;;4965090;28;20225;-84
2023/09/29 05:49:25;;;;;;;10.30;9.43;;;;;;;;;;4978237;28;20295;-79
2023/09/29 05:51:52;;;;;;;14.57;9.43;;;;;;;;;;4988658;28;20287;-79
2023/09/29 05:54:18;;;;;;;9.95;9.07;;;;;;;;;;5019942;28;20671;-80
2023/09/29 05:56:46;;;;;;;8.93;8.23;;;;;;;;;;4970288;28;20846;-79
2023/09/29 05:59:11;;;;;;;9.15;8.35;;;;;;;;;;4991960;28;20222;-79
2023/09/29 06:01:37;;;;;;;9.18;8.35;;;;;;;;;;5019814;28;20232;-78
2023/09/29 06:04:03;;;;;;;8.88;8.18;;;;;;;;;;4974116;28;20235;-79
2023/09/29 06:06:31;;;;;;;8.75;8.05;;;;;;;;;;5021778;28;20896;-79
2023/09/29 06:09:01;;;;;;;9.60;8.63;;;;;;;;;;4984043;28;20221;-80
2023/09/29 06:11:27;;;;;;;9.32;7.70;;;;;;;;;;4992996;28;20252;-79
2023/09/29 06:13:52;;;;;;;9.32;8.40;;;;;;;;;;4998221;28;20217;-79
2023/09/29 06:16:18;;;;;;;8.95;8.15;;;;;;;;;;5000246;28;20243;-78
2023/09/29 06:18:44;;;;;;;10.15;9.00;;;;;;;;;;4987534;28;20296;-79
2023/09/29 06:21:09;;;;;;;9.85;8.85;;;;;;;;;;5019375;28;20217;-80
2023/09/29 06:23:35;;;;;;;10.15;9.27;;;;;;;;;;5001133;28;20281;-79
2023/09/29 06:26:00;;;;;;;9.63;8.88;;;;;;;;;;4979235;28;20233;-79
2023/09/29 06:28:28;;;;;;;10.80;9.40;;;;;;;;;;4998706;28;20221;-80
2023/09/29 06:31:00;;;;;;;9.63;8.77;;;;;;;;;;5016014;28;20234;-78
2023/09/29 06:33:25;;;;;;;11.23;9.88;;;;;;;;;;4972076;28;20241;-79
2023/09/29 06:35:51;;;;;;;11.48;10.40;;;;;;;;;;4985663;28;20292;-79
2023/09/29 06:38:17;;;;;;;10.48;9.45;;;;;;;;;;4987338;28;20225;-77
2023/09/29 06:40:45;;;;;;;12.13;10.90;;;;;;;;;;4987687;28;20221;-79
2023/09/29 06:43:11;;;;;;;11.50;10.48;;;;;;;;;;4988157;28;20233;-78
2023/09/29 06:45:37;;;;;;;12.05;10.98;;;;;;;;;;4992482;28;20228;-80
2023/09/29 06:48:06;;;;;;;11.88;10.65;;;;;;;;;;4992788;28;20235;-80
2023/09/29 06:50:31;;;;;;;12.13;10.75;;;;;;;;;;4997201;28;20225;-79
2023/09/29 06:53:00;;;;;;;11.70;10.38;;;;;;;;;;5002285;28;20240;-77
2023/09/29 06:55:25;;;;;;;11.85;10.77;;;;;;;;;;4995401;28;20233;-79
2023/09/29 06:57:51;;;;;;;10.85;10.05;;;;;;;;;;4984758;28;20232;-80
2023/09/29 07:00:18;;;;;;;10.68;9.68;;;;;;;;;;5005514;28;20226;-79
2023/09/29 07:02:44;;;;;;;11.65;10.45;;;;;;;;;;4991534;28;20243;-80
2023/09/29 07:05:13;;;;;;;10.93;9.98;;;;;;;;;;5014338;28;20217;-79
2023/09/29 07:07:38;;;;;;;11.65;9.30;;;;;;;;;;5006354;28;20292;-80
2023/09/29 07:10:08;;;;;;;11.55;10.40;;;;;;;;;;5004432;28;20252;-80
2023/09/29 07:12:34;;;;;;;11.02;10.15;;;;;;;;;;4988445;28;20245;-81
2023/09/29 07:15:00;;;;;;;11.23;9.77;;;;;;;;;;5012370;28;20292;-80
2023/09/29 07:17:25;;;;;;;10.40;9.10;;;;;;;;;;5004848;28;20225;-80
2023/09/29 07:19:51;;;;;;;9.95;9.10;;;;;;;;;;5011429;28;20282;-80
2023/09/29 07:22:17;;;;;;;10.25;9.27;;;;;;;;;;4985580;28;20217;-80
2023/09/29 07:24:43;;;;;;;9.88;8.82;;;;;;;;;;4983782;28;20236;-80
2023/09/29 07:27:08;;;;;;;9.35;8.55;;;;;;;;;;5034788;28;20243;-80
2023/09/29 07:29:34;;;;;;;9.70;8.93;;;;;;;;;;5012511;28;20752;-79
2023/09/29 07:32:00;;;;;;;9.65;8.85;;;;;;;;;;4994135;28;20221;-79
2023/09/29 07:34:29;;;;;;;9.82;9.02;;;;;;;;;;4997113;28;20217;-80
2023/09/29 07:36:58;;;;;;;9.70;8.80;;;;;;;;;;4993130;28;20268;-79
2023/09/29 07:39:26;;;;;;;10.40;9.52;;;;;;;;;;4994572;28;20292;-80
2023/09/29 07:41:53;;;;;;;10.20;9.23;;;;;;;;;;5027853;28;20239;-80
2023/09/29 07:44:19;;;;;;;11.90;10.15;;;;;;;;;;5006927;28;20737;-79
2023/09/29 07:46:53;;;;;;;10.15;9.25;;;;;;;;;;4994013;28;20643;-81
2023/09/29 07:49:46;;;;;;;10.02;8.90;;;;;;;;;;5021269;28;20236;-79
2023/09/29 07:52:11;;;;;;;9.02;8.10;;;;;;;;;;5020547;28;20240;-79
2023/09/29 07:54:39;;;;;;;10.18;7.93;;;;;;;;;;4991101;28;20290;-80
2023/09/29 07:57:05;;;;;;;8.57;7.68;;;;;;;;;;5011305;28;20228;-79
2023/09/29 07:59:31;;;;;;;8.73;7.95;;;;;;;;;;4955445;28;20221;-80
2023/09/29 08:01:58;;;;;;;10.48;7.22;;;;;;;;;;5003170;28;20226;-79
2023/09/29 08:04:25;;;;;;;8.25;6.78;;;;;;;;;;5000779;28;20353;-85
2023/09/29 08:06:51;;;;;;;10.30;6.63;;;;;;;;;;4990844;28;20227;-86
2023/09/29 08:09:23;;;;;;;7.43;6.75;;;;;;;;;;4988745;28;20277;-86
2023/09/29 08:11:51;;;;;;;6.85;6.15;;;;;;;;;;5007197;28;20233;-85
2023/09/29 08:14:19;;;;;;;6.50;5.90;;;;;;;;;;4980173;28;20228;-86
2023/09/29 08:16:47;;;;;;;7.53;5.53;;;;;;;;;;4999501;28;20292;-85
2023/09/29 08:19:12;;;;;;;7.10;5.40;;;;;;;;;;4957473;28;20224;-85
2023/09/29 08:21:39;;;;;;;5.05;4.60;;;;;;;;;;4980601;28;20221;-86
2023/09/29 08:24:06;;;;;;;7.88;5.78;;;;;;;;;;4999676;28;20217;-86
2023/09/29 08:26:32;;;;;;;7.43;4.97;;;;;;;;;;4971094;28;20225;-87
2023/09/29 08:28:59;;;;;;;6.20;4.65;;;;;;;;;;4965348;28;20295;-85
2023/09/29 08:31:26;;;;;;;7.05;4.72;;;;;;;;;;4993912;28;20213;-86
2023/09/29 08:33:52;;;;;;;4.80;4.32;;;;;;;;;;4992952;28;20339;-86
2023/09/29 08:36:21;;;;;;;5.25;4.75;;;;;;;;;;4984492;28;20244;-79
2023/09/29 08:38:46;;;;;;;4.65;4.25;;;;;;;;;;5011631;28;20226;-80
2023/09/29 08:41:20;;;;;;;4.60;4.20;;;;;;;;;;5014831;28;20238;-80
2023/09/29 08:43:45;;;;;;;5.38;4.18;;;;;;;;;;5005237;28;20231;-80
2023/09/29 08:46:13;;;;;;;4.38;3.97;;;;;;;;;;5003411;28;20233;-79
2023/09/29 08:48:39;;;;;;;4.85;3.88;;;;;;;;;;4993498;28;20220;-79
2023/09/29 08:51:06;;;;;;;4.05;3.75;;;;;;;;;;4986591;23;20303;-71
2023/09/29 08:53:32;;;;;;;5.38;3.58;;;;;;;;;;4982317;28;20243;-72
2023/09/29 08:56:04;;;;;;;4.90;3.70;;;;;;;;;;4965699;28;20236;-72
2023/09/29 08:58:35;;;;;;;4.07;3.67;;;;;;;;;;4941177;28;20319;-71
2023/09/29 09:01:05;;;;;;;5.07;3.17;;;;;;;;;;4952014;28;20222;-73
2023/09/29 09:03:34;;;;;;;3.75;3.45;;;;;;;;;;4946350;28;20798;-72
2023/09/29 09:06:01;;;;;;;4.20;3.60;;;;;;;;;;4977455;28;20273;-72
2023/09/29 09:08:29;;;;;;;8.02;3.50;;;;;;;;;;4958649;28;20222;-72
2023/09/29 09:11:02;;;;;;;3.70;3.13;;;;;;;;;;4977076;28;20230;-71
2023/09/29 09:13:30;;;;;;;5.00;3.15;;;;;;;;;;4993469;28;20219;-73
2023/09/29 09:16:00;;;;;;;3.15;2.88;;;;;;;;;;4976483;28;20219;-72
2023/09/29 09:18:27;;;;;;;4.38;3.10;;;;;;;;;;4950210;28;20219;-71
2023/09/29 09:20:58;;;;;;;5.10;2.92;;;;;;;;;;4959524;28;20221;-73
2023/09/29 09:23:37;;;;;;;2.80;2.50;;;;;;;;;;4962202;28;20275;-72
2023/09/29 09:26:19;;;;;;;5.22;3.20;;;;;;;;;;4975642;28;20241;-72
2023/09/29 09:28:45;;;;;;;5.95;3.20;;;;;;;;;;4969507;28;20712;-71
2023/09/29 09:31:10;;;;;;;4.25;3.10;;;;;;;;;;4992220;28;20214;-71
2023/09/29 09:33:38;;;;;;;3.58;3.00;;;;;;;;;;4975336;28;20316;-73
2023/09/29 09:36:10;;;;;;;4.07;3.00;;;;;;;;;;4993407;28;20234;-71
2023/09/29 09:38:40;;;;;;;3.75;3.03;;;;;;;;;;4993731;28;20218;-72
2023/09/29 09:41:09;;;;;;;3.78;2.85;;;;;;;;;;4969337;28;20250;-71
2023/09/29 09:43:38;;;;;;;3.58;2.70;;;;;;;;;;4981708;28;20226;-73
2023/09/29 09:46:12;;;;;;;3.75;2.95;;;;;;;;;;4978077;28;20225;-73
2023/09/29 09:48:49;;;;;;;3.05;2.63;;;;;;;;;;4982150;28;20237;-73
2023/09/29 09:51:44;;;;;;;3.85;2.55;;;;;;;;;;4973131;28;20253;-72
2023/09/29 09:54:10;;;;;;;3.88;2.72;;;;;;;;;;4966174;28;20243;-73
2023/09/29 09:57:08;;;;;;;2.95;2.55;;;;;;;;;;4955323;28;20704;-72
2023/09/29 09:59:37;;;;;;;2.50;2.30;;;;;;;;;;4974923;28;20240;-73
2023/09/29 10:02:11;;;;;;;2.80;2.50;;;;;;;;;;4961523;28;20238;-73
2023/09/29 10:04:39;;;;;;;3.70;2.22;;;;;;;;;;4978675;28;20229;-72
2023/09/29 10:07:05;;;;;;;4.68;2.55;;;;;;;;;;4981620;28;20774;-73
2023/09/29 10:09:44;;;;;;;2.85;2.30;;;;;;;;;;4988905;28;20241;-73
2023/09/29 10:12:34;;;;;;;2.30;2.10;;;;;;;;;;4979503;28;20218;-72
2023/09/29 10:15:05;;;;;;;2.50;2.05;;;;;;;;;;4971013;28;20657;-71
2023/09/29 10:17:43;;;;;;;1.90;1.80;;;;;;;;;;4976930;28;20719;-72
2023/09/29 10:20:21;;;;;;;2.92;2.38;;;;;;;;;;4932950;28;20357;-72
2023/09/29 10:22:54;;;;;;;2.92;2.17;;;;;;;;;;4975676;28;20230;-72
2023/09/29 10:25:23;;;;;;;4.90;2.35;;;;;;;;;;4975915;28;20230;-74
2023/09/29 10:27:58;;;;;;;2.83;2.30;;;;;;;;;;4955212;28;20229;-73
2023/09/29 10:30:26;;;;;;;4.13;2.30;;;;;;;;;;4968241;28;20245;-73
2023/09/29 10:33:20;;;;;;;4.50;2.08;;;;;;;;;;4962111;28;20225;-73
2023/09/29 10:35:51;;;;;;;2.67;2.30;;;;;;;;;;4961357;28;20286;-72
2023/09/29 10:38:26;;;;;;;4.07;2.40;;;;;;;;;;4961479;28;20278;-72
2023/09/29 10:40:52;;;;;;;3.80;2.20;;;;;;;;;;4968531;28;20218;-73
2023/09/29 10:43:23;;;;;;;3.47;2.10;;;;;;;;;;4975877;28;20218;-73
2023/09/29 10:45:50;;;;;;;2.88;2.38;;;;;;;;;;4976030;28;20230;-73
2023/09/29 10:48:24;;;;;;;2.83;2.00;;;;;;;;;;4948661;28;20219;-73
2023/09/29 10:50:52;;;;;;;3.03;2.22;;;;;;;;;;4975258;28;20317;-72
2023/09/29 10:53:21;;;;;;;3.70;2.53;;;;;;;;;;4963307;28;20607;-72
2023/09/29 10:55:54;;;;;;;2.42;2.17;;;;;;;;;;4964866;28;20608;-73
2023/09/29 10:58:20;;;;;;;3.92;2.00;;;;;;;;;;4968918;28;20221;-71
2023/09/29 11:00:53;;;;;;;7.97;2.60;;;;;;;;;;4959175;28;20223;-72
2023/09/29 11:03:24;;;;;;;3.85;2.38;;;;;;;;;;4954037;28;20222;-72
2023/09/29 11:05:53;;;;;;;4.05;2.10;;;;;;;;;;4962043;28;20318;-71
2023/09/29 11:08:20;;;;;;;3.38;2.50;;;;;;;;;;4945809;28;20218;-72
2023/09/29 11:11:02;;;;;;;2.55;1.80;;;;;;;;;;4969024;28;20700;-72
2023/09/29 11:13:28;;;;;;;2.45;2.03;;;;;;;;;;4975213;28;20728;-73
2023/09/29 11:15:54;;;;;;;3.72;2.10;;;;;;;;;;4962590;28;20233;-72
2023/09/29 11:18:30;;;;;;;3.90;2.28;;;;;;;;;;4977694;28;20214;-72
2023/09/29 11:21:01;;;;;;;4.03;2.28;;;;;;;;;;4967870;28;20722;-73
2023/09/29 11:23:41;;;;;;;2.60;2.10;;;;;;;;;;4984251;28;22314;-73
2023/09/29 11:26:09;;;;;;;2.38;1.65;;;;;;;;;;4968010;28;20226;-73
2023/09/29 11:28:41;;;;;;;3.25;2.20;;;;;;;;;;4954856;28;20225;-74
2023/09/29 11:31:10;;;;;;;2.78;2.40;;;;;;;;;;4962426;28;20536;-73
2023/09/29 11:33:44;;;;;;;3.03;1.77;;;;;;;;;;4959910;28;20578;-75
2023/09/29 11:36:29;;;;;;;3.45;2.08;;;;;;;;;;4972868;28;20715;-72
2023/09/29 11:39:00;;;;;;;3.20;2.20;;;;;;;;;;4967219;28;20244;-74
2023/09/29 11:41:30;;;;;;;3.78;1.80;;;;;;;;;;4965414;28;20218;-74
2023/09/29 11:43:58;;;;;;;2.08;1.88;;;;;;;;;;4986787;28;20229;-74
2023/09/29 11:46:23;;;;;;;3.50;2.17;;;;;;;;;;4977043;28;20230;-74
2023/09/29 11:48:54;;;;;;;2.83;2.05;;;;;;;;;;4951097;28;20609;-74
2023/09/29 11:51:23;;;;;;;3.15;2.08;;;;;;;;;;4959670;28;20237;-75
2023/09/29 11:53:54;;;;;;;2.35;2.03;;;;;;;;;;4960619;28;20230;-75
2023/09/29 11:56:22;;;;;;;1.85;1.70;;;;;;;;;;4960113;28;20788;-74
2023/09/29 11:58:54;;;;;;;2.50;2.13;;;;;;;;;;4961622;28;20314;-75
2023/09/29 12:01:22;;;;;;;3.53;2.30;;;;;;;;;;4951690;28;20252;-76
2023/09/29 12:03:47;;;;;;;3.67;2.17;;;;;;;;;;4967172;28;20940;-75
2023/09/29 12:06:15;;;;;;;3.05;1.90;;;;;;;;;;4955423;28;20242;-76
2023/09/29 12:08:43;;;;;;;2.38;2.17;;;;;;;;;;4960593;28;20301;-76
2023/09/29 12:11:15;;;;;;;3.70;2.08;;;;;;;;;;4975165;28;20237;-76
2023/09/29 12:13:43;;;;;;;5.88;2.03;;;;;;;;;;4951668;28;20234;-77
2023/09/29 12:16:09;;;;;;;2.88;1.80;;;;;;;;;;4992155;28;20229;-76
2023/09/29 12:18:35;;;;;;;2.85;2.00;;;;;;;;;;4956652;28;20829;-76
2023/09/29 12:21:08;;;;;;;2.03;1.85;;;;;;;;;;4977432;28;20213;-76
2023/09/29 12:23:36;;;;;;;2.35;2.05;;;;;;;;;;4975530;28;20706;-76
2023/09/29 12:26:08;;;;;;;4.72;1.88;;;;;;;;;;4991824;28;20317;-76
2023/09/29 12:28:36;;;;;;;2.15;1.95;;;;;;;;;;4980102;28;20657;-76
2023/09/29 12:31:16;;;;;;;5.80;2.20;;;;;;;;;;4967031;28;20219;-76
2023/09/29 12:33:41;;;;;;;3.60;2.10;;;;;;;;;;4980504;28;20303;-76
2023/09/29 12:36:08;;;;;;;3.33;1.83;;;;;;;;;;4985485;28;20225;-77
2023/09/29 12:38:33;;;;;;;2.33;1.70;;;;;;;;;;4962721;28;20224;-77
2023/09/29 12:40:59;;;;;;;3.10;1.90;;;;;;;;;;4971432;28;20213;-77
2023/09/29 12:43:24;;;;;;;2.22;1.85;;;;;;;;;;4994112;28;20225;-76
2023/09/29 12:45:50;;;;;;;2.25;2.05;;;;;;;;;;4972316;28;20202;-77
2023/09/29 12:48:20;;;;;;;6.55;2.08;;;;;;;;;;4950889;28;20226;-76
2023/09/29 12:50:48;;;;;;;2.85;2.05;;;;;;;;;;4946669;28;20218;-76
2023/09/29 12:53:14;;;;;;;5.03;2.05;;;;;;;;;;4973738;28;20646;-75
2023/09/29 12:55:44;;;;;;;3.08;1.90;;;;;;;;;;4938901;28;20265;-76
2023/09/29 12:58:09;;;;;;;2.10;1.90;;;;;;;;;;4973641;28;20222;-76
2023/09/29 13:00:37;;;;;;;2.88;2.00;;;;;;;;;;4957695;28;20210;-76
2023/09/29 13:03:04;;;;;;;5.03;2.15;;;;;;;;;;4959481;28;20273;-76
2023/09/29 13:05:35;;;;;;;4.20;1.98;;;;;;;;;;4965486;28;20246;-76
2023/09/29 13:08:06;;;;;;;4.32;2.25;;;;;;;;;;4946899;28;20215;-76
2023/09/29 13:10:35;;;;;;;3.22;2.00;;;;;;;;;;4954332;28;20222;-76
2023/09/29 13:13:00;;;;;;;2.20;2.00;;;;;;;;;;4974960;28;20218;-77
2023/09/29 13:15:31;;;;;;;2.72;2.00;;;;;;;;;;4975603;28;20574;-77
2023/09/29 13:17:57;;;;;;;5.60;1.80;;;;;;;;;;4965741;28;20222;-77
2023/09/29 13:20:22;;;;;;;3.50;2.00;;;;;;;;;;4928304;28;20272;-75
2023/09/29 13:22:50;;;;;;;4.10;2.10;;;;;;;;;;4959425;28;20493;-76
2023/09/29 13:25:16;;;;;;;2.50;2.20;;;;;;;;;;4968427;28;20230;-75
2023/09/29 13:27:44;;;;;;;2.83;2.13;;;;;;;;;;4939368;28;20222;-76
2023/09/29 13:30:11;;;;;;;4.55;2.10;;;;;;;;;;4963792;28;20218;-76
2023/09/29 13:32:40;;;;;;;4.05;1.92;;;;;;;;;;4962357;28;20287;-75
2023/09/29 13:35:08;;;;;;;4.25;1.90;;;;;;;;;;4976013;28;20211;-74
2023/09/29 13:37:34;;;;;;;2.22;2.00;;;;;;;;;;4963719;28;20211;-75
2023/09/29 13:40:05;;;;;;;3.72;2.20;;;;;;;;;;4971324;28;20226;-75
2023/09/29 13:42:34;;;;;;;3.13;1.85;;;;;;;;;;4964437;28;20234;-75
2023/09/29 13:45:07;;;;;;;2.20;2.00;;;;;;;;;;4953883;28;20293;-75
2023/09/29 13:47:35;;;;;;;3.03;2.00;;;;;;;;;;4952094;28;20217;-75
2023/09/29 13:50:01;;;;;;;3.35;2.10;;;;;;;;;;4955797;28;20237;-75
2023/09/29 13:52:27;;;;;;;2.47;1.88;;;;;;;;;;4976336;28;20707;-74
2023/09/29 13:54:55;;;;;;;2.88;1.95;;;;;;;;;;4978967;28;20691;-76
2023/09/29 13:57:24;;;;;;;2.22;2.03;;;;;;;;;;4963998;28;20222;-76
2023/09/29 13:59:52;;;;;;;2.55;2.10;;;;;;;;;;4978609;28;20221;-75
2023/09/29 14:02:17;;;;;;;1.83;1.58;;;;;;;;;;4968174;28;20226;-75
2023/09/29 14:04:46;;;;;;;5.15;2.33;;;;;;;;;;4976311;28;20277;-75
2023/09/29 14:07:14;;;;;;;2.90;2.17;;;;;;;;;;4988380;28;20226;-76
2023/09/29 14:09:39;;;;;;;4.00;2.08;;;;;;;;;;4972020;28;20261;-78
2023/09/29 14:12:08;;;;;;;2.55;1.83;;;;;;;;;;4969108;28;20272;-75
2023/09/29 14:14:36;;;;;;;3.78;1.95;;;;;;;;;;4970141;28;20669;-75
2023/09/29 14:17:06;;;;;;;3.00;2.20;;;;;;;;;;4986030;28;20282;-76
2023/09/29 14:19:34;;;;;;;7.30;2.13;;;;;;;;;;5000309;28;20285;-76
2023/09/29 14:22:02;;;;;;;2.45;1.88;;;;;;;;;;4984014;28;20229;-75
2023/09/29 14:24:28;;;;;;;3.00;1.95;;;;;;;;;;4961560;28;20229;-72
2023/09/29 14:26:53;;;;;;;4.60;2.22;;;;;;;;;;4961300;28;20221;-74
2023/09/29 14:29:19;;;;;;;2.55;1.95;;;;;;;;;;4961521;28;20246;-75
2023/09/29 14:31:45;;;;;;;2.33;1.98;;;;;;;;;;4974082;28;20768;-74
2023/09/29 14:34:17;;;;;;;4.97;2.00;;;;;;;;;;4955790;28;20223;-75
2023/09/29 14:36:42;;;;;;;2.67;2.10;;;;;;;;;;4968843;28;20218;-75
2023/09/29 14:39:10;;;;;;;2.58;2.10;;;;;;;;;;4968662;28;20635;-78
2023/09/29 14:41:37;;;;;;;2.85;2.20;;;;;;;;;;4968529;28;20708;-75
2023/09/29 14:44:04;;;;;;;3.42;2.05;;;;;;;;;;4958173;28;20211;-76
2023/09/29 14:46:31;;;;;;;4.15;2.33;;;;;;;;;;4962552;28;20243;-76
2023/09/29 14:48:59;;;;;;;2.47;2.22;;;;;;;;;;4968863;28;20222;-75